Airport Name : Camp Pendleton MCAS

Other Name : Camp Pendleton

ICAO : KNFG

IATA :

FAA : NFG

Latitude : 33.30125

Longitude : -117.355147

Country : United States

Local Date and Time : 1/22/2018 9:48:00 PM

 

TAF (Terminal Aerodrome Forecast)

TAF COR KNFG 2303/2403 VRB05KT 9999 SKC QNH3013INS BECMG 2318/2320 22008KT 9999 SKC QNH3009INS T00/2314Z T24/2322Z COR 0359

 

METAR (METeorological Aerodrome Report)

KNFG 230455Z 06004KT 10SM CLR 07/01 A3018 RMK AO2 SLP218 T00670006 $

KNFG 230355Z 00000KT 10SM CLR 08/01 A3016 RMK AO2 SLP214 T00780006 $

KNFG 230255Z 00000KT 10SM CLR 10/M01 A3016 RMK AO2 SLP211 T01001006 53003 $

KNFG 230155Z 00000KT 10SM CLR 13/00 A3015 RMK AO2 SLP210 T01280000 $